Time;durP1;ratioP1;P1;durP2;ratioP2;P2;SDS_P1;SDS_P2;PMS_P1;PMS_P2;Temp;Humidity;BMP_temperature;BMP_pressure;BME280_temperature;BME280_humidity;BME280_pressure;Samples;Min_cycle;Max_cycle;Signal;HPM_P1;HPM_P2
2022/06/25 00:01:10;;;;;;;8.45;5.38;;;;;;;;;;6155292;23;20095;-81
2022/06/25 00:03:36;;;;;;;7.15;5.50;;;;;;;;;;6155564;23;20048;-81
2022/06/25 00:06:02;;;;;;;10.25;5.50;;;;;;;;;;6155524;23;20006;-82
2022/06/25 00:08:29;;;;;;;7.40;4.68;;;;;;;;;;6155217;23;20469;-81
2022/06/25 00:10:55;;;;;;;4.88;4.25;;;;;;;;;;6155610;23;20005;-81
2022/06/25 00:13:21;;;;;;;7.03;4.80;;;;;;;;;;6129065;23;20389;-82
2022/06/25 00:15:47;;;;;;;7.05;4.75;;;;;;;;;;6155595;23;20009;-81
2022/06/25 00:18:14;;;;;;;5.95;5.35;;;;;;;;;;6155224;23;20075;-80
2022/06/25 00:20:40;;;;;;;5.78;5.00;;;;;;;;;;6155345;23;20009;-82
2022/06/25 00:23:07;;;;;;;8.02;5.68;;;;;;;;;;6155512;23;20076;-82
2022/06/25 00:25:33;;;;;;;7.00;5.18;;;;;;;;;;6155290;23;20437;-83
2022/06/25 00:27:59;;;;;;;7.25;4.97;;;;;;;;;;6155423;23;20005;-81
2022/06/25 00:30:25;;;;;;;6.30;5.28;;;;;;;;;;6155182;23;20009;-81
2022/06/25 00:32:51;;;;;;;6.57;5.20;;;;;;;;;;6155440;23;20072;-82
2022/06/25 00:35:17;;;;;;;8.35;5.32;;;;;;;;;;6155140;23;20001;-80
2022/06/25 00:37:43;;;;;;;6.13;5.53;;;;;;;;;;6155305;23;20492;-83
2022/06/25 00:40:10;;;;;;;6.78;5.97;;;;;;;;;;6155246;23;20001;-84
2022/06/25 00:42:36;;;;;;;6.15;5.10;;;;;;;;;;6155210;23;20434;-80
2022/06/25 00:45:03;;;;;;;6.05;5.45;;;;;;;;;;6155228;23;20002;-80
2022/06/25 00:47:29;;;;;;;5.90;5.07;;;;;;;;;;6154987;23;19998;-82
2022/06/25 00:49:55;;;;;;;6.25;5.65;;;;;;;;;;6155347;23;20068;-81
2022/06/25 00:52:23;;;;;;;5.70;5.20;;;;;;;;;;6154975;23;20033;-82
2022/06/25 00:54:50;;;;;;;5.80;5.18;;;;;;;;;;6155190;23;20422;-82
2022/06/25 00:57:19;;;;;;;5.85;5.32;;;;;;;;;;6155030;23;20072;-80
2022/06/25 00:59:47;;;;;;;5.85;4.75;;;;;;;;;;6155007;23;20005;-82
2022/06/25 01:02:13;;;;;;;6.05;4.57;;;;;;;;;;6155166;23;20001;-81
2022/06/25 01:04:39;;;;;;;6.30;4.80;;;;;;;;;;6154987;23;20058;-83
2022/06/25 01:07:06;;;;;;;5.72;5.13;;;;;;;;;;6154962;23;20018;-83
2022/06/25 01:09:33;;;;;;;6.28;5.68;;;;;;;;;;6154655;23;20005;-82
2022/06/25 01:11:59;;;;;;;7.53;5.90;;;;;;;;;;6155012;23;20031;-83
2022/06/25 01:14:25;;;;;;;5.78;5.20;;;;;;;;;;6154896;23;20008;-83
2022/06/25 01:16:51;;;;;;;5.57;5.07;;;;;;;;;;6155097;23;20005;-82
2022/06/25 01:19:17;;;;;;;5.97;5.45;;;;;;;;;;6154944;23;20004;-81
2022/06/25 01:21:44;;;;;;;5.35;4.85;;;;;;;;;;6154875;23;20005;-80
2022/06/25 01:24:11;;;;;;;5.75;5.10;;;;;;;;;;6128923;23;20014;-81
2022/06/25 01:26:41;;;;;;;5.43;4.93;;;;;;;;;;6154747;23;20001;-82
2022/06/25 01:29:08;;;;;;;5.63;4.97;;;;;;;;;;6154971;23;19997;-81
2022/06/25 01:31:34;;;;;;;5.88;5.30;;;;;;;;;;6154717;23;20307;-83
2022/06/25 01:34:00;;;;;;;7.10;5.47;;;;;;;;;;6155044;23;20006;-83
2022/06/25 01:36:27;;;;;;;6.20;5.60;;;;;;;;;;6154642;23;20001;-81
2022/06/25 01:38:53;;;;;;;6.57;5.97;;;;;;;;;;6154897;23;20028;-82
2022/06/25 01:41:19;;;;;;;6.63;5.63;;;;;;;;;;6155005;23;19998;-82
2022/06/25 01:43:45;;;;;;;8.05;6.28;;;;;;;;;;6156253;23;20109;-83
2022/06/25 01:46:12;;;;;;;6.60;6.00;;;;;;;;;;6156961;23;20303;-82
2022/06/25 01:48:38;;;;;;;7.30;5.88;;;;;;;;;;6130470;23;20008;-80
2022/06/25 01:51:04;;;;;;;7.22;5.78;;;;;;;;;;6156905;23;20025;-82
2022/06/25 01:53:30;;;;;;;6.93;5.75;;;;;;;;;;6156592;23;20012;-83
2022/06/25 01:55:56;;;;;;;5.20;4.70;;;;;;;;;;6156920;23;20029;-81
2022/06/25 01:58:23;;;;;;;6.38;5.40;;;;;;;;;;6156873;23;20006;-82
2022/06/25 02:00:49;;;;;;;5.93;5.32;;;;;;;;;;6156477;23;20084;-82
2022/06/25 02:03:15;;;;;;;6.28;5.40;;;;;;;;;;6156777;23;20002;-83
2022/06/25 02:05:58;;;;;;;6.68;6.05;;;;;;;;;;6156516;23;20056;-81
2022/06/25 02:08:42;;;;;;;6.90;5.70;;;;;;;;;;6156463;23;20017;-82
2022/06/25 02:11:09;;;;;;;9.07;5.20;;;;;;;;;;6156660;23;20002;-81
2022/06/25 02:13:35;;;;;;;5.90;5.35;;;;;;;;;;6156677;23;20107;-82
2022/06/25 02:16:01;;;;;;;5.32;4.82;;;;;;;;;;6156728;23;20001;-80
2022/06/25 02:18:28;;;;;;;5.55;5.05;;;;;;;;;;6156597;23;20541;-83
2022/06/25 02:20:54;;;;;;;6.60;5.50;;;;;;;;;;6156560;23;20005;-81
2022/06/25 02:23:21;;;;;;;7.80;6.35;;;;;;;;;;6156386;23;20002;-82
2022/06/25 02:25:47;;;;;;;6.07;5.35;;;;;;;;;;6130443;23;20081;-81
2022/06/25 02:28:14;;;;;;;5.43;4.90;;;;;;;;;;6156303;23;19998;-81
2022/06/25 02:30:40;;;;;;;6.22;5.63;;;;;;;;;;6156914;23;20009;-82
2022/06/25 02:33:11;;;;;;;6.47;5.93;;;;;;;;;;6156443;23;20010;-82
2022/06/25 02:35:37;;;;;;;5.68;4.90;;;;;;;;;;6156564;23;20001;-79
2022/06/25 02:38:03;;;;;;;6.15;4.65;;;;;;;;;;6156428;23;20059;-81
2022/06/25 02:40:29;;;;;;;7.22;5.38;;;;;;;;;;6156221;23;20089;-81
2022/06/25 02:42:56;;;;;;;6.68;4.50;;;;;;;;;;6130261;23;20037;-82
2022/06/25 02:45:22;;;;;;;5.47;4.90;;;;;;;;;;6156120;23;19994;-81
2022/06/25 02:47:48;;;;;;;4.90;4.30;;;;;;;;;;6156365;23;20008;-83
2022/06/25 02:50:14;;;;;;;6.57;5.10;;;;;;;;;;6156118;23;20006;-83
2022/06/25 02:52:40;;;;;;;5.45;4.93;;;;;;;;;;6156370;23;20009;-83
2022/06/25 02:55:07;;;;;;;5.20;4.70;;;;;;;;;;6156258;23;20008;-83
2022/06/25 03:00:18;;;;;;;5.47;4.95;;;;;;;;;;6155906;23;20068;-82
2022/06/25 03:02:44;;;;;;;6.65;5.22;;;;;;;;;;6156255;23;20069;-81
2022/06/25 03:05:10;;;;;;;6.20;5.57;;;;;;;;;;6155933;23;20012;-82
2022/06/25 03:07:36;;;;;;;13.68;11.77;;;;;;;;;;6155979;23;20018;-82
2022/06/25 03:10:03;;;;;;;9.43;8.45;;;;;;;;;;6156009;23;20052;-83
2022/06/25 03:12:29;;;;;;;8.48;7.13;;;;;;;;;;6156190;23;20001;-82
2022/06/25 03:14:55;;;;;;;12.18;9.40;;;;;;;;;;6156165;23;20077;-82
2022/06/25 03:17:21;;;;;;;87.85;69.15;;;;;;;;;;6156273;23;20009;-84
2022/06/25 03:19:47;;;;;;;39.95;35.63;;;;;;;;;;6156029;23;20005;-82
2022/06/25 03:22:14;;;;;;;62.70;53.92;;;;;;;;;;6155910;23;20001;-81
2022/06/25 03:24:41;;;;;;;23.25;18.05;;;;;;;;;;6156512;23;20072;-84
2022/06/25 03:27:07;;;;;;;10.27;7.60;;;;;;;;;;6155878;23;20056;-82
2022/06/25 03:29:33;;;;;;;19.70;16.60;;;;;;;;;;6156114;23;20373;-80
2022/06/25 03:32:00;;;;;;;8.70;5.50;;;;;;;;;;6156037;23;20013;-82
2022/06/25 03:34:26;;;;;;;12.77;9.80;;;;;;;;;;6155697;23;20005;-83
2022/06/25 03:36:52;;;;;;;30.33;21.10;;;;;;;;;;6155881;23;20005;-83
2022/06/25 03:39:18;;;;;;;19.17;17.23;;;;;;;;;;6155532;23;20008;-80
2022/06/25 03:41:44;;;;;;;11.02;9.90;;;;;;;;;;6155939;23;20101;-82
2022/06/25 03:44:11;;;;;;;18.58;11.45;;;;;;;;;;6155741;23;20005;-82
2022/06/25 03:46:38;;;;;;;13.95;10.32;;;;;;;;;;6155609;23;20001;-81
2022/06/25 03:49:05;;;;;;;10.15;8.05;;;;;;;;;;6155906;23;20421;-82
2022/06/25 03:51:31;;;;;;;8.18;5.53;;;;;;;;;;6155566;23;20056;-80
2022/06/25 03:53:58;;;;;;;7.75;6.07;;;;;;;;;;6155759;23;20006;-82
2022/06/25 03:56:24;;;;;;;8.43;6.18;;;;;;;;;;6155475;23;20009;-81
2022/06/25 03:58:51;;;;;;;8.88;7.68;;;;;;;;;;6155720;23;20518;-82
2022/06/25 04:01:17;;;;;;;6.10;5.45;;;;;;;;;;6155478;23;20068;-83
2022/06/25 04:03:43;;;;;;;6.00;5.40;;;;;;;;;;6155750;23;20072;-80
2022/06/25 04:06:09;;;;;;;11.93;10.00;;;;;;;;;;6155450;23;20410;-81
2022/06/25 04:08:36;;;;;;;7.50;6.80;;;;;;;;;;6155099;23;20018;-81
2022/06/25 04:11:02;;;;;;;6.55;5.15;;;;;;;;;;6155632;23;20005;-81
2022/06/25 04:13:28;;;;;;;6.70;5.95;;;;;;;;;;6155469;23;20009;-83
2022/06/25 04:15:55;;;;;;;7.50;6.80;;;;;;;;;;6155545;23;20001;-80
2022/06/25 04:18:21;;;;;;;7.82;6.13;;;;;;;;;;6155432;23;20002;-82
2022/06/25 04:20:47;;;;;;;12.43;11.13;;;;;;;;;;6129309;23;20012;-80
2022/06/25 04:23:13;;;;;;;9.07;6.03;;;;;;;;;;6155473;23;20005;-82
2022/06/25 04:25:39;;;;;;;5.75;5.25;;;;;;;;;;6155233;23;20334;-83
2022/06/25 04:30:50;;;;;;;6.93;5.75;;;;;;;;;;6155786;23;20329;-81
2022/06/25 04:33:17;;;;;;;14.10;12.60;;;;;;;;;;6155157;23;20014;-80
2022/06/25 04:35:43;;;;;;;6.70;5.25;;;;;;;;;;6155325;23;20080;-83
2022/06/25 04:38:10;;;;;;;9.38;5.60;;;;;;;;;;6155210;23;20010;-80
2022/06/25 04:40:36;;;;;;;7.40;6.03;;;;;;;;;;6155154;23;20070;-82
2022/06/25 04:43:02;;;;;;;6.20;5.40;;;;;;;;;;6129176;23;20012;-82
2022/06/25 04:45:28;;;;;;;7.28;5.55;;;;;;;;;;6155118;23;20001;-81
2022/06/25 04:48:00;;;;;;;5.70;5.00;;;;;;;;;;6155089;23;19998;-81
2022/06/25 04:50:26;;;;;;;7.38;5.07;;;;;;;;;;6154662;23;20009;-81
2022/06/25 04:52:52;;;;;;;6.28;4.63;;;;;;;;;;6155121;23;19998;-82
2022/06/25 04:55:19;;;;;;;4.35;3.95;;;;;;;;;;6154909;23;20056;-80
2022/06/25 04:57:45;;;;;;;5.40;4.90;;;;;;;;;;6155040;23;20009;-82
2022/06/25 05:00:12;;;;;;;4.82;4.32;;;;;;;;;;6154803;23;20429;-80
2022/06/25 05:02:38;;;;;;;5.10;4.25;;;;;;;;;;6154896;23;20052;-81
2022/06/25 05:05:05;;;;;;;6.93;4.13;;;;;;;;;;6155025;23;20008;-80
2022/06/25 05:07:31;;;;;;;7.28;5.30;;;;;;;;;;6154573;23;20092;-81
2022/06/25 05:09:58;;;;;;;5.47;4.97;;;;;;;;;;6155183;23;20460;-80
2022/06/25 05:15:09;;;;;;;4.78;4.30;;;;;;;;;;6154623;23;20064;-81
2022/06/25 05:17:35;;;;;;;5.55;4.40;;;;;;;;;;6154585;23;20009;-79
2022/06/25 05:20:01;;;;;;;4.75;4.13;;;;;;;;;;6154768;23;20002;-81
2022/06/25 05:22:27;;;;;;;5.50;4.28;;;;;;;;;;6154728;23;19997;-81
2022/06/25 05:24:56;;;;;;;4.60;3.97;;;;;;;;;;6154959;23;20030;-81
2022/06/25 05:27:23;;;;;;;15.75;14.25;;;;;;;;;;6154490;23;19998;-81
2022/06/25 05:29:49;;;;;;;6.75;5.68;;;;;;;;;;6154917;23;20044;-79
2022/06/25 05:32:15;;;;;;;6.18;5.53;;;;;;;;;;6128285;23;20021;-81
2022/06/25 05:34:41;;;;;;;5.93;5.15;;;;;;;;;;6154137;23;20012;-80
2022/06/25 05:37:07;;;;;;;7.07;5.18;;;;;;;;;;6154457;23;20006;-80
2022/06/25 05:39:33;;;;;;;14.48;5.97;;;;;;;;;;6154556;23;19997;-81
2022/06/25 05:42:00;;;;;;;7.68;5.32;;;;;;;;;;6154727;23;20008;-80
2022/06/25 05:44:26;;;;;;;10.77;6.22;;;;;;;;;;6155210;23;20068;-81
2022/06/25 05:46:52;;;;;;;8.30;4.97;;;;;;;;;;6154577;23;20004;-81
2022/06/25 05:49:18;;;;;;;5.55;5.05;;;;;;;;;;6155249;23;20002;-81
2022/06/25 05:51:44;;;;;;;5.88;5.00;;;;;;;;;;6155024;23;20030;-80
2022/06/25 05:54:10;;;;;;;8.82;6.00;;;;;;;;;;6154438;23;20013;-80
2022/06/25 05:56:36;;;;;;;16.30;8.18;;;;;;;;;;6155236;23;20001;-80
2022/06/25 05:59:05;;;;;;;7.07;6.38;;;;;;;;;;6154042;23;20012;-80
2022/06/25 06:01:31;;;;;;;7.30;6.40;;;;;;;;;;6154890;23;20021;-80
2022/06/25 06:03:57;;;;;;;8.88;7.97;;;;;;;;;;6154796;23;20001;-80
2022/06/25 06:06:23;;;;;;;8.18;7.38;;;;;;;;;;6127800;23;20051;-80
2022/06/25 06:08:49;;;;;;;9.02;7.18;;;;;;;;;;6154502;23;20357;-80
2022/06/25 06:11:15;;;;;;;8.27;6.75;;;;;;;;;;6154323;23;20002;-80
2022/06/25 06:13:41;;;;;;;8.32;7.28;;;;;;;;;;6128459;23;20366;-81
2022/06/25 06:16:08;;;;;;;7.68;6.90;;;;;;;;;;6128583;23;20060;-81
2022/06/25 06:18:34;;;;;;;8.05;7.20;;;;;;;;;;6154411;23;20025;-80
2022/06/25 06:21:00;;;;;;;7.43;6.75;;;;;;;;;;6153974;23;20129;-79
2022/06/25 06:23:26;;;;;;;8.27;7.47;;;;;;;;;;6153905;23;19994;-81
2022/06/25 06:25:52;;;;;;;7.20;6.50;;;;;;;;;;6154286;23;20001;-80
2022/06/25 06:28:18;;;;;;;8.15;7.13;;;;;;;;;;6153801;23;20002;-80
2022/06/25 06:30:46;;;;;;;7.55;6.72;;;;;;;;;;6156618;23;20377;-78
2022/06/25 06:33:12;;;;;;;7.10;6.32;;;;;;;;;;6156395;23;20014;-80
2022/06/25 06:35:38;;;;;;;8.07;7.20;;;;;;;;;;6156124;23;20001;-79
2022/06/25 06:38:04;;;;;;;7.55;6.82;;;;;;;;;;6156097;23;20434;-80
2022/06/25 06:40:30;;;;;;;7.78;7.05;;;;;;;;;;6155632;23;20108;-81
2022/06/25 06:42:57;;;;;;;8.80;8.00;;;;;;;;;;6155920;23;20001;-80
2022/06/25 06:45:23;;;;;;;9.15;7.60;;;;;;;;;;6155795;23;20063;-80
2022/06/25 06:47:49;;;;;;;8.20;7.15;;;;;;;;;;6155909;23;20422;-80
2022/06/25 06:50:15;;;;;;;9.55;8.65;;;;;;;;;;6155639;23;20009;-81
2022/06/25 06:52:41;;;;;;;9.35;8.40;;;;;;;;;;6154875;23;20417;-77
2022/06/25 06:55:08;;;;;;;9.68;8.55;;;;;;;;;;6155448;23;20117;-79
2022/06/25 06:57:34;;;;;;;9.32;8.43;;;;;;;;;;6155373;23;20002;-79
2022/06/25 07:00:01;;;;;;;8.55;7.75;;;;;;;;;;6155423;23;20364;-77
2022/06/25 07:02:27;;;;;;;9.32;8.43;;;;;;;;;;6155456;23;20001;-78
2022/06/25 07:04:53;;;;;;;8.30;7.50;;;;;;;;;;6155692;23;19998;-78
2022/06/25 07:07:20;;;;;;;8.75;7.82;;;;;;;;;;6155478;23;20018;-78
2022/06/25 07:09:46;;;;;;;8.77;7.90;;;;;;;;;;6155475;23;20002;-78
2022/06/25 07:12:12;;;;;;;9.18;8.02;;;;;;;;;;6155835;23;19998;-81
2022/06/25 07:14:38;;;;;;;9.18;7.55;;;;;;;;;;6155439;23;20001;-79
2022/06/25 07:17:04;;;;;;;9.93;8.93;;;;;;;;;;6155491;23;20002;-78
2022/06/25 07:19:30;;;;;;;10.00;8.38;;;;;;;;;;6155415;23;20005;-80
2022/06/25 07:21:57;;;;;;;9.98;8.15;;;;;;;;;;6155497;23;20009;-79
2022/06/25 07:24:23;;;;;;;8.52;7.72;;;;;;;;;;6155763;23;20384;-79
2022/06/25 07:26:50;;;;;;;9.55;8.65;;;;;;;;;;6155232;23;20069;-78
2022/06/25 07:29:16;;;;;;;9.35;8.45;;;;;;;;;;6155746;23;20072;-78
2022/06/25 07:31:42;;;;;;;11.77;10.68;;;;;;;;;;6155318;23;19997;-79
2022/06/25 07:34:08;;;;;;;11.13;8.90;;;;;;;;;;6155498;23;20021;-78
2022/06/25 07:36:35;;;;;;;8.90;8.00;;;;;;;;;;6153026;23;20005;-78
2022/06/25 07:39:01;;;;;;;8.20;7.40;;;;;;;;;;6155318;23;20329;-79
2022/06/25 07:41:28;;;;;;;8.70;7.90;;;;;;;;;;6155540;23;20044;-78
2022/06/25 07:43:54;;;;;;;7.75;6.95;;;;;;;;;;6155084;23;20025;-78
2022/06/25 07:46:21;;;;;;;9.07;7.93;;;;;;;;;;6156098;23;20012;-80
2022/06/25 07:48:47;;;;;;;8.10;7.30;;;;;;;;;;6155661;23;19998;-79
2022/06/25 07:53:58;;;;;;;8.93;7.68;;;;;;;;;;6155562;23;20020;-78
2022/06/25 07:56:24;;;;;;;7.90;7.18;;;;;;;;;;6129749;23;20036;-78
2022/06/25 07:58:50;;;;;;;10.13;9.02;;;;;;;;;;6155385;23;20076;-78
2022/06/25 08:01:16;;;;;;;8.18;7.40;;;;;;;;;;6155275;23;20335;-77
2022/06/25 08:03:42;;;;;;;10.40;8.70;;;;;;;;;;6155583;23;20002;-77
2022/06/25 08:06:10;;;;;;;8.80;7.90;;;;;;;;;;6154632;23;19997;-77
2022/06/25 08:08:36;;;;;;;7.93;7.22;;;;;;;;;;6155580;23;20028;-76
2022/06/25 08:11:03;;;;;;;10.30;7.57;;;;;;;;;;6155513;23;19997;-77
2022/06/25 08:13:29;;;;;;;9.88;8.00;;;;;;;;;;6155180;23;19997;-77
2022/06/25 08:15:55;;;;;;;10.57;7.82;;;;;;;;;;6155854;23;19998;-77
2022/06/25 08:18:22;;;;;;;11.40;8.02;;;;;;;;;;6155750;23;20014;-76
2022/06/25 08:20:49;;;;;;;10.38;7.80;;;;;;;;;;6154746;23;20027;-79
2022/06/25 08:23:16;;;;;;;10.60;8.60;;;;;;;;;;6154820;23;20021;-81
2022/06/25 08:25:42;;;;;;;10.18;9.18;;;;;;;;;;6155453;23;20005;-81
2022/06/25 08:28:08;;;;;;;10.75;9.70;;;;;;;;;;6154860;23;20009;-78
2022/06/25 08:30:35;;;;;;;9.95;7.68;;;;;;;;;;6155138;23;20068;-78
2022/06/25 08:33:02;;;;;;;9.50;7.40;;;;;;;;;;6155393;23;20005;-79
2022/06/25 08:35:31;;;;;;;10.45;7.32;;;;;;;;;;6154530;23;20362;-77
2022/06/25 08:37:57;;;;;;;8.57;7.68;;;;;;;;;;6154908;23;20005;-78
2022/06/25 08:40:23;;;;;;;11.02;7.03;;;;;;;;;;6154778;23;20060;-77
2022/06/25 08:42:50;;;;;;;9.75;7.93;;;;;;;;;;6128202;23;20005;-77
2022/06/25 08:45:17;;;;;;;10.18;7.82;;;;;;;;;;6154397;23;20004;-77
2022/06/25 08:47:47;;;;;;;14.70;7.53;;;;;;;;;;6154120;23;20001;-78
2022/06/25 08:50:17;;;;;;;7.70;6.78;;;;;;;;;;6154919;23;20450;-77
2022/06/25 08:52:46;;;;;;;10.30;7.13;;;;;;;;;;6154814;23;20006;-78
2022/06/25 08:55:31;;;;;;;9.35;7.07;;;;;;;;;;6154629;23;20006;-79
2022/06/25 08:57:58;;;;;;;9.50;7.40;;;;;;;;;;6154670;23;20009;-78
2022/06/25 09:00:24;;;;;;;9.25;7.40;;;;;;;;;;6154670;23;20151;-78
2022/06/25 09:02:51;;;;;;;9.48;6.25;;;;;;;;;;6154984;23;20009;-78
2022/06/25 09:05:17;;;;;;;12.52;6.65;;;;;;;;;;6154283;23;20025;-78
2022/06/25 09:07:53;;;;;;;9.63;6.60;;;;;;;;;;6154536;23;20096;-78
2022/06/25 09:10:20;;;;;;;10.18;6.90;;;;;;;;;;6154639;23;20007;-78
2022/06/25 09:12:53;;;;;;;9.77;6.88;;;;;;;;;;6154659;23;20020;-78
2022/06/25 09:15:22;;;;;;;10.23;6.72;;;;;;;;;;6154657;23;20065;-78
2022/06/25 09:17:49;;;;;;;9.18;6.25;;;;;;;;;;6155077;23;19998;-78
2022/06/25 09:20:16;;;;;;;11.57;6.50;;;;;;;;;;6154726;23;20317;-77
2022/06/25 09:22:52;;;;;;;11.40;6.35;;;;;;;;;;6154872;23;20002;-78
2022/06/25 09:25:23;;;;;;;8.07;5.60;;;;;;;;;;6155068;23;20124;-77
2022/06/25 09:27:49;;;;;;;11.98;5.68;;;;;;;;;;6154620;23;20002;-79
2022/06/25 09:41:48;;;;;;;13.48;8.05;;;;;;;;;;5091979;27;1425803;-79
2022/06/25 09:44:15;;;;;;;10.77;5.38;;;;;;;;;;5117916;28;20115;-78
2022/06/25 09:47:02;;;;;;;10.40;6.05;;;;;;;;;;5130176;28;20028;-78
2022/06/25 09:49:29;;;;;;;12.25;5.82;;;;;;;;;;5111917;28;20035;-79
2022/06/25 09:52:13;;;;;;;9.10;4.82;;;;;;;;;;5129711;28;20114;-79
2022/06/25 09:54:40;;;;;;;15.32;5.32;;;;;;;;;;5128702;28;20016;-78
2022/06/25 09:57:06;;;;;;;15.07;6.35;;;;;;;;;;5119494;28;20032;-78
2022/06/25 09:59:33;;;;;;;12.60;4.93;;;;;;;;;;5117184;28;20035;-77
2022/06/25 10:02:01;;;;;;;17.80;4.78;;;;;;;;;;5114697;28;20533;-78
2022/06/25 10:04:30;;;;;;;14.05;5.53;;;;;;;;;;5109093;28;20081;-79
2022/06/25 10:06:56;;;;;;;15.15;5.53;;;;;;;;;;5109348;28;20036;-79
2022/06/25 10:09:28;;;;;;;14.80;4.82;;;;;;;;;;5109222;28;20046;-79
2022/06/25 10:11:54;;;;;;;13.43;5.50;;;;;;;;;;5109173;28;20103;-78
2022/06/25 10:14:21;;;;;;;13.52;5.60;;;;;;;;;;5109241;28;20493;-78
2022/06/25 10:16:48;;;;;;;13.57;5.10;;;;;;;;;;5109070;28;20108;-79
2022/06/25 10:19:15;;;;;;;16.08;5.88;;;;;;;;;;5109252;28;20055;-79
2022/06/25 10:21:41;;;;;;;14.68;5.40;;;;;;;;;;5108759;28;20028;-77
2022/06/25 10:24:07;;;;;;;15.50;5.55;;;;;;;;;;5109025;28;20031;-78
2022/06/25 10:26:34;;;;;;;20.25;7.32;;;;;;;;;;5108588;28;20059;-78
2022/06/25 10:29:02;;;;;;;15.52;5.70;;;;;;;;;;5108903;28;20059;-79
2022/06/25 10:31:28;;;;;;;19.80;5.68;;;;;;;;;;5108662;28;20110;-78
2022/06/25 10:33:58;;;;;;;18.67;6.50;;;;;;;;;;5108688;28;20359;-78
2022/06/25 10:36:43;;;;;;;15.25;5.10;;;;;;;;;;5108692;28;20054;-76
2022/06/25 10:39:28;;;;;;;16.77;5.18;;;;;;;;;;5108538;28;20020;-78
2022/06/25 10:45:16;;;;;;;18.42;5.40;;;;;;;;;;5095209;28;20027;-79
2022/06/25 10:47:43;;;;;;;12.20;4.32;;;;;;;;;;5076357;28;20064;-78
2022/06/25 10:50:21;;;;;;;13.75;4.80;;;;;;;;;;5094726;28;20032;-78
2022/06/25 10:53:06;;;;;;;11.30;4.50;;;;;;;;;;5094740;28;20476;-79
2022/06/25 10:55:36;;;;;;;16.55;5.63;;;;;;;;;;5094774;28;20475;-78
2022/06/25 10:58:15;;;;;;;17.05;5.55;;;;;;;;;;5094692;28;20028;-78
2022/06/25 11:00:48;;;;;;;19.25;5.88;;;;;;;;;;5094481;28;20020;-78
2022/06/25 11:03:14;;;;;;;12.75;4.45;;;;;;;;;;5094788;28;20042;-79
2022/06/25 11:05:45;;;;;;;14.90;5.05;;;;;;;;;;5094271;28;20099;-79
2022/06/25 11:08:11;;;;;;;14.15;5.13;;;;;;;;;;5094821;28;20027;-78
2022/06/25 11:10:39;;;;;;;14.05;4.75;;;;;;;;;;5094188;28;20043;-78
2022/06/25 11:13:05;;;;;;;18.83;4.85;;;;;;;;;;5076414;28;20437;-78
2022/06/25 11:15:42;;;;;;;14.40;4.57;;;;;;;;;;5094678;28;20027;-78
2022/06/25 11:18:13;;;;;;;16.70;5.57;;;;;;;;;;5094402;28;20039;-79
2022/06/25 11:20:39;;;;;;;11.52;4.50;;;;;;;;;;5094286;28;20493;-78
2022/06/25 11:23:06;;;;;;;14.02;4.95;;;;;;;;;;5076199;28;20027;-78
2022/06/25 11:31:22;;;;;;;13.10;3.92;;;;;;;;;;5092226;28;20126;-78
2022/06/25 11:33:48;;;;;;;10.32;3.97;;;;;;;;;;5094470;28;20020;-78
2022/06/25 11:36:15;;;;;;;10.27;4.07;;;;;;;;;;5094320;28;20063;-78
2022/06/25 11:38:50;;;;;;;13.63;4.72;;;;;;;;;;5094173;28;20128;-79
2022/06/25 11:41:20;;;;;;;10.63;3.97;;;;;;;;;;5093931;28;20056;-80
2022/06/25 11:43:46;;;;;;;10.73;4.78;;;;;;;;;;5094274;28;20084;-77
2022/06/25 11:46:14;;;;;;;10.70;4.28;;;;;;;;;;5093898;28;20059;-79
2022/06/25 11:48:40;;;;;;;15.18;4.47;;;;;;;;;;5094632;28;20020;-81
2022/06/25 11:51:07;;;;;;;12.40;4.60;;;;;;;;;;5094095;28;20359;-76
2022/06/25 11:53:37;;;;;;;10.10;4.03;;;;;;;;;;5092689;28;20459;-77
2022/06/25 11:56:04;;;;;;;12.02;4.20;;;;;;;;;;5094145;28;20024;-78
2022/06/25 11:58:31;;;;;;;15.98;6.28;;;;;;;;;;5093728;28;20107;-79
2022/06/25 12:00:59;;;;;;;17.10;4.97;;;;;;;;;;5093499;28;20027;-77
2022/06/25 12:03:25;;;;;;;12.75;4.50;;;;;;;;;;5093943;28;20421;-78
2022/06/25 12:05:54;;;;;;;16.27;4.20;;;;;;;;;;5093799;28;20063;-79
2022/06/25 12:08:20;;;;;;;16.55;3.63;;;;;;;;;;5093052;28;20023;-79
2022/06/25 12:10:48;;;;;;;15.15;4.75;;;;;;;;;;5102282;28;20034;-79
2022/06/25 12:13:21;;;;;;;15.20;4.88;;;;;;;;;;5114123;28;20032;-79
2022/06/25 12:15:47;;;;;;;12.63;3.80;;;;;;;;;;5113476;28;20027;-80
2022/06/25 12:18:13;;;;;;;14.38;5.55;;;;;;;;;;5113985;28;20260;-77
2022/06/25 12:20:58;;;;;;;13.63;5.05;;;;;;;;;;5113569;28;20036;-80
2022/06/25 12:23:24;;;;;;;13.32;6.45;;;;;;;;;;5111761;28;20132;-79
2022/06/25 12:25:50;;;;;;;14.30;4.78;;;;;;;;;;5106319;28;20027;-81
2022/06/25 12:28:17;;;;;;;13.85;4.65;;;;;;;;;;5113863;28;20027;-78
2022/06/25 12:30:43;;;;;;;16.88;8.98;;;;;;;;;;5112793;28;20050;-78
2022/06/25 12:33:15;;;;;;;12.98;4.78;;;;;;;;;;5113870;28;20023;-81
2022/06/25 12:35:42;;;;;;;12.50;4.55;;;;;;;;;;5113495;28;20088;-82
2022/06/25 12:38:10;;;;;;;14.45;4.13;;;;;;;;;;5113456;28;20058;-78
2022/06/25 12:40:43;;;;;;;14.38;3.38;;;;;;;;;;5112607;28;20066;-79
2022/06/25 12:43:09;;;;;;;;;;;;;;;;;;5114103;28;20032;-80
2022/06/25 12:45:36;;;;;;;10.13;3.45;;;;;;;;;;5112905;28;19912;-79
2022/06/25 12:48:03;;;;;;;12.07;4.20;;;;;;;;;;5113152;28;20050;-74
2022/06/25 12:50:33;;;;;;;12.38;4.55;;;;;;;;;;5084963;28;20036;-79
2022/06/25 12:53:10;;;;;;;14.90;4.05;;;;;;;;;;5105368;28;20390;-80
2022/06/25 12:55:37;;;;;;;13.88;3.70;;;;;;;;;;5103930;28;20039;-79
2022/06/25 12:58:10;;;;;;;12.25;4.05;;;;;;;;;;5101601;28;20105;-79
2022/06/25 13:00:37;;;;;;;16.40;4.82;;;;;;;;;;5102943;28;20031;-79
2022/06/25 13:03:05;;;;;;;14.35;4.55;;;;;;;;;;5101836;28;20416;-79
2022/06/25 13:05:31;;;;;;;16.10;4.18;;;;;;;;;;5102324;28;20043;-79
2022/06/25 13:07:57;;;;;;;12.10;4.32;;;;;;;;;;5111051;28;20031;-79
2022/06/25 13:10:24;;;;;;;14.20;4.63;;;;;;;;;;5112436;28;20551;-78
2022/06/25 13:12:52;;;;;;;12.27;3.75;;;;;;;;;;5112655;28;20039;-78
2022/06/25 13:15:18;;;;;;;20.08;5.70;;;;;;;;;;5112771;28;20625;-82
2022/06/25 13:17:45;;;;;;;23.65;15.07;;;;;;;;;;5112749;28;20023;-80
2022/06/25 13:20:14;;;;;;;15.48;4.88;;;;;;;;;;5112562;28;20032;-82
2022/06/25 13:22:41;;;;;;;11.93;3.97;;;;;;;;;;5112226;28;20031;-80
2022/06/25 13:25:09;;;;;;;15.85;4.43;;;;;;;;;;5112694;28;20038;-79
2022/06/25 13:27:45;;;;;;;11.23;3.88;;;;;;;;;;5112215;28;20024;-79
2022/06/25 13:30:12;;;;;;;12.10;3.97;;;;;;;;;;5112182;28;20550;-79
2022/06/25 13:32:38;;;;;;;11.88;4.70;;;;;;;;;;5112288;28;20020;-79
2022/06/25 13:35:05;;;;;;;14.55;4.15;;;;;;;;;;5112626;28;20093;-79
2022/06/25 13:37:32;;;;;;;11.43;3.47;;;;;;;;;;5112305;28;20128;-79
2022/06/25 13:39:58;;;;;;;13.02;3.58;;;;;;;;;;5111411;28;20024;-81
2022/06/25 13:42:24;;;;;;;10.10;3.45;;;;;;;;;;5112060;28;20032;-80
2022/06/25 13:44:50;;;;;;;14.93;4.10;;;;;;;;;;5112233;28;20112;-80
2022/06/25 13:47:16;;;;;;;12.52;4.32;;;;;;;;;;5112311;28;20112;-79
2022/06/25 13:49:43;;;;;;;12.77;4.05;;;;;;;;;;5111355;28;20389;-78
2022/06/25 13:52:09;;;;;;;14.45;4.00;;;;;;;;;;5112394;28;20023;-79
2022/06/25 13:54:35;;;;;;;10.48;4.28;;;;;;;;;;5111612;28;20060;-79
2022/06/25 13:57:01;;;;;;;13.18;3.65;;;;;;;;;;5112252;28;20080;-80
2022/06/25 13:59:27;;;;;;;14.02;4.25;;;;;;;;;;5112010;28;20039;-77
2022/06/25 14:01:53;;;;;;;13.65;4.97;;;;;;;;;;5112128;28;20026;-79
2022/06/25 14:04:20;;;;;;;13.13;4.28;;;;;;;;;;5112306;28;20023;-79
2022/06/25 14:06:46;;;;;;;18.23;7.47;;;;;;;;;;5112070;28;20028;-79
2022/06/25 14:09:13;;;;;;;15.48;5.95;;;;;;;;;;5112286;28;20073;-79
2022/06/25 14:11:40;;;;;;;13.60;3.95;;;;;;;;;;5111750;28;20028;-80
2022/06/25 14:14:06;;;;;;;15.85;4.30;;;;;;;;;;5111697;28;20031;-79
2022/06/25 14:16:32;;;;;;;11.75;5.03;;;;;;;;;;5113136;28;20027;-80
2022/06/25 14:18:59;;;;;;;14.70;4.57;;;;;;;;;;5115763;28;20416;-80
2022/06/25 14:21:26;;;;;;;14.05;4.15;;;;;;;;;;5115538;28;20028;-78
2022/06/25 14:23:52;;;;;;;12.45;3.60;;;;;;;;;;5114973;28;20030;-79
2022/06/25 14:26:18;;;;;;;14.02;4.53;;;;;;;;;;5116320;28;20447;-79
2022/06/25 14:28:44;;;;;;;14.52;4.38;;;;;;;;;;5115291;28;20055;-79
2022/06/25 14:31:10;;;;;;;12.38;3.60;;;;;;;;;;5115696;28;20032;-80
2022/06/25 14:33:37;;;;;;;18.45;6.10;;;;;;;;;;5115343;28;20076;-80
2022/06/25 14:44:18;;;;;;;13.00;4.00;;;;;;;;;;5114617;28;20382;-80
2022/06/25 14:46:44;;;;;;;12.25;4.10;;;;;;;;;;5115447;28;20034;-80
2022/06/25 14:49:13;;;;;;;12.88;3.53;;;;;;;;;;5115396;28;20039;-80
2022/06/25 14:51:40;;;;;;;12.93;4.57;;;;;;;;;;5115186;28;20394;-80
2022/06/25 14:54:06;;;;;;;22.98;13.35;;;;;;;;;;5114817;28;20034;-80
2022/06/25 14:56:32;;;;;;;15.07;5.50;;;;;;;;;;5115133;28;20102;-81
2022/06/25 14:58:58;;;;;;;13.50;3.80;;;;;;;;;;5114921;28;20027;-78
2022/06/25 15:01:24;;;;;;;12.57;4.60;;;;;;;;;;5115232;28;20027;-80
2022/06/25 15:03:50;;;;;;;11.82;4.43;;;;;;;;;;5114379;28;20089;-80
2022/06/25 15:06:17;;;;;;;9.13;3.28;;;;;;;;;;5115027;28;20085;-80
2022/06/25 15:08:44;;;;;;;10.73;4.38;;;;;;;;;;5115201;28;20051;-80
2022/06/25 15:11:10;;;;;;;9.65;3.65;;;;;;;;;;5114004;28;20400;-81
2022/06/25 15:13:36;;;;;;;12.27;4.05;;;;;;;;;;5114570;28;20024;-80
2022/06/25 15:16:03;;;;;;;9.65;3.70;;;;;;;;;;5096267;28;20031;-80